Time;durP1;ratioP1;P1;durP2;ratioP2;P2;SDS_P1;SDS_P2;PMS_P1;PMS_P2;Temp;Humidity;BMP_temperature;BMP_pressure;BME280_temperature;BME280_humidity;BME280_pressure;Samples;Min_cycle;Max_cycle;Signal;HPM_P1;HPM_P2
2023/05/15 00:01:50;;;;;;;20.30;11.48;;;;;;;;;;6301361;22;20003;-80
2023/05/15 00:04:16;;;;;;;16.60;10.77;;;;;;;;;;6301848;22;20080;-80
2023/05/15 00:06:41;;;;;;;18.20;11.15;;;;;;;;;;6300989;22;20448;-80
2023/05/15 00:09:07;;;;;;;17.25;11.13;;;;;;;;;;6301688;22;20038;-79
2023/05/15 00:11:32;;;;;;;16.30;10.80;;;;;;;;;;6301187;22;20082;-79
2023/05/15 00:13:58;;;;;;;16.95;10.82;;;;;;;;;;6301888;22;20396;-79
2023/05/15 00:16:23;;;;;;;16.73;11.25;;;;;;;;;;6301527;22;20007;-79
2023/05/15 00:18:49;;;;;;;16.90;10.75;;;;;;;;;;6301628;22;20018;-79
2023/05/15 00:21:14;;;;;;;17.95;11.05;;;;;;;;;;6300903;22;20026;-80
2023/05/15 00:23:39;;;;;;;17.88;10.45;;;;;;;;;;6301926;22;20006;-79
2023/05/15 00:26:05;;;;;;;18.67;10.68;;;;;;;;;;6273813;22;20010;-79
2023/05/15 00:28:30;;;;;;;21.20;11.10;;;;;;;;;;6301825;22;20006;-79
2023/05/15 00:30:56;;;;;;;19.40;11.50;;;;;;;;;;6301507;22;20503;-80
2023/05/15 00:33:21;;;;;;;16.42;10.85;;;;;;;;;;6301912;22;20071;-79
2023/05/15 00:35:50;;;;;;;18.65;11.80;;;;;;;;;;6301531;22;20074;-79
2023/05/15 00:38:15;;;;;;;16.92;11.45;;;;;;;;;;6301463;22;20000;-80
2023/05/15 00:40:42;;;;;;;20.00;11.65;;;;;;;;;;6301664;22;20018;-79
2023/05/15 00:43:09;;;;;;;17.42;11.23;;;;;;;;;;6301444;22;20369;-79
2023/05/15 00:45:37;;;;;;;18.98;11.88;;;;;;;;;;6301336;22;20006;-79
2023/05/15 00:48:03;;;;;;;21.20;12.27;;;;;;;;;;6301588;22;20461;-79
2023/05/15 00:50:30;;;;;;;17.63;11.85;;;;;;;;;;6273666;22;20090;-77
2023/05/15 00:52:56;;;;;;;16.95;11.23;;;;;;;;;;6301202;22;20491;-75
2023/05/15 00:55:21;;;;;;;16.48;10.60;;;;;;;;;;6301881;22;20003;-77
2023/05/15 00:57:50;;;;;;;18.80;11.93;;;;;;;;;;6301617;22;20037;-78
2023/05/15 01:00:17;;;;;;;19.38;12.48;;;;;;;;;;6301487;22;20056;-79
2023/05/15 01:02:43;;;;;;;20.42;11.93;;;;;;;;;;6301238;22;20000;-80
2023/05/15 01:05:08;;;;;;;23.70;12.27;;;;;;;;;;6301447;22;20007;-79
2023/05/15 01:07:44;;;;;;;23.38;12.25;;;;;;;;;;6273287;22;20003;-79
2023/05/15 01:10:10;;;;;;;18.35;12.27;;;;;;;;;;6301486;22;20011;-79
2023/05/15 01:12:38;;;;;;;17.05;11.10;;;;;;;;;;6301230;22;20339;-79
2023/05/15 01:15:04;;;;;;;17.48;12.20;;;;;;;;;;6301716;22;20121;-77
2023/05/15 01:17:30;;;;;;;18.80;12.02;;;;;;;;;;6301397;22;20003;-80
2023/05/15 01:19:58;;;;;;;18.35;12.10;;;;;;;;;;6301283;22;20086;-79
2023/05/15 01:22:29;;;;;;;17.70;11.48;;;;;;;;;;6300950;22;20056;-77
2023/05/15 01:24:55;;;;;;;18.27;11.90;;;;;;;;;;6303448;22;20027;-80
2023/05/15 01:27:41;;;;;;;20.20;11.85;;;;;;;;;;6303214;22;19996;-79
2023/05/15 01:30:07;;;;;;;19.30;12.65;;;;;;;;;;6303592;22;20420;-79
2023/05/15 01:32:48;;;;;;;19.02;13.73;;;;;;;;;;6303064;22;20007;-79
2023/05/15 01:35:26;;;;;;;21.50;12.35;;;;;;;;;;6303594;22;20323;-79
2023/05/15 01:38:01;;;;;;;20.00;12.50;;;;;;;;;;6302481;22;20064;-79
2023/05/15 01:40:28;;;;;;;20.52;12.75;;;;;;;;;;6303285;22;20006;-80
2023/05/15 01:42:57;;;;;;;20.20;12.10;;;;;;;;;;6302567;22;20003;-80
2023/05/15 01:45:24;;;;;;;19.33;12.40;;;;;;;;;;6275756;22;20418;-80
2023/05/15 01:47:52;;;;;;;20.60;12.13;;;;;;;;;;6303022;22;20007;-79
2023/05/15 01:50:19;;;;;;;20.20;12.70;;;;;;;;;;6303236;22;20038;-79
2023/05/15 01:52:55;;;;;;;18.70;12.75;;;;;;;;;;6302327;22;20003;-79
2023/05/15 01:55:24;;;;;;;19.90;12.95;;;;;;;;;;6275853;22;20003;-80
2023/05/15 01:57:51;;;;;;;20.67;13.68;;;;;;;;;;6302962;22;20010;-80
2023/05/15 02:00:17;;;;;;;23.85;13.52;;;;;;;;;;6303187;22;20534;-79
2023/05/15 02:02:44;;;;;;;20.50;12.90;;;;;;;;;;6302696;22;20009;-79
2023/05/15 02:05:11;;;;;;;22.05;13.45;;;;;;;;;;6303027;22;19999;-80
2023/05/15 02:07:37;;;;;;;19.15;12.80;;;;;;;;;;6274725;22;20416;-79
2023/05/15 02:10:03;;;;;;;20.08;13.13;;;;;;;;;;6302989;22;20520;-80
2023/05/15 02:12:30;;;;;;;18.73;13.27;;;;;;;;;;6302579;22;20010;-79
2023/05/15 02:14:57;;;;;;;23.75;13.82;;;;;;;;;;6303145;22;20031;-79
2023/05/15 02:17:26;;;;;;;19.85;12.85;;;;;;;;;;6302938;22;20452;-79
2023/05/15 02:19:52;;;;;;;20.30;12.65;;;;;;;;;;6302417;22;20678;-80
2023/05/15 02:22:17;;;;;;;21.52;13.02;;;;;;;;;;6302032;22;20003;-79
2023/05/15 02:24:43;;;;;;;20.45;13.05;;;;;;;;;;6302761;22;20000;-79
2023/05/15 02:27:28;;;;;;;20.58;13.27;;;;;;;;;;6302686;22;20003;-79
2023/05/15 02:30:08;;;;;;;21.60;13.88;;;;;;;;;;6302574;22;20078;-79
2023/05/15 02:32:49;;;;;;;;;;;;;;;;;;6303084;22;20569;-79
2023/05/15 02:35:32;;;;;;;18.02;12.63;;;;;;;;;;6302469;22;19902;-79
2023/05/15 02:38:01;;;;;;;18.33;12.43;;;;;;;;;;6301932;22;19999;-79
2023/05/15 02:40:28;;;;;;;21.50;13.55;;;;;;;;;;6302789;22;19999;-79
2023/05/15 02:42:55;;;;;;;23.38;12.50;;;;;;;;;;6302284;22;20021;-79
2023/05/15 02:45:21;;;;;;;23.08;13.30;;;;;;;;;;6302523;22;20147;-80
2023/05/15 02:47:49;;;;;;;20.73;12.40;;;;;;;;;;6302282;22;19999;-79
2023/05/15 02:50:15;;;;;;;19.73;12.32;;;;;;;;;;6302513;22;20007;-79
2023/05/15 02:52:40;;;;;;;22.02;13.02;;;;;;;;;;6301851;22;20401;-79
2023/05/15 02:55:06;;;;;;;19.05;12.90;;;;;;;;;;6302646;22;20002;-79
2023/05/15 02:57:32;;;;;;;19.55;12.70;;;;;;;;;;6302546;22;20019;-80
2023/05/15 02:59:58;;;;;;;19.45;12.40;;;;;;;;;;6302584;22;20941;-77
2023/05/15 03:02:24;;;;;;;19.63;12.88;;;;;;;;;;6302018;22;20456;-78
2023/05/15 03:04:49;;;;;;;19.20;12.02;;;;;;;;;;6274882;22;20008;-80
2023/05/15 03:07:15;;;;;;;21.65;12.60;;;;;;;;;;6301890;22;20331;-80
2023/05/15 03:09:40;;;;;;;19.83;12.23;;;;;;;;;;6302095;22;20321;-79
2023/05/15 03:12:07;;;;;;;19.15;12.77;;;;;;;;;;6302384;22;20427;-79
2023/05/15 03:14:32;;;;;;;26.73;12.23;;;;;;;;;;6302233;22;20413;-79
2023/05/15 03:16:57;;;;;;;18.27;12.57;;;;;;;;;;6302546;22;20439;-79
2023/05/15 03:19:23;;;;;;;20.83;12.30;;;;;;;;;;6301693;22;20022;-77
2023/05/15 03:21:48;;;;;;;20.75;12.00;;;;;;;;;;6274422;22;20007;-79
2023/05/15 03:24:14;;;;;;;21.88;11.60;;;;;;;;;;6301783;22;20140;-78
2023/05/15 03:26:41;;;;;;;21.77;12.15;;;;;;;;;;6302355;22;20419;-79
2023/05/15 03:29:07;;;;;;;19.20;12.38;;;;;;;;;;6301919;22;20003;-80
2023/05/15 03:31:32;;;;;;;17.15;12.20;;;;;;;;;;6302324;22;20084;-79
2023/05/15 03:33:58;;;;;;;18.88;12.02;;;;;;;;;;6301980;22;20376;-79
2023/05/15 03:36:23;;;;;;;21.10;12.73;;;;;;;;;;6301874;22;20082;-78
2023/05/15 03:38:48;;;;;;;19.13;11.80;;;;;;;;;;6302000;22;20008;-80
2023/05/15 03:41:14;;;;;;;20.05;11.80;;;;;;;;;;6302173;22;20003;-79
2023/05/15 03:43:39;;;;;;;20.85;11.52;;;;;;;;;;6301756;22;20120;-80
2023/05/15 03:46:05;;;;;;;19.35;11.75;;;;;;;;;;6274460;22;20007;-79
2023/05/15 03:48:30;;;;;;;22.15;11.85;;;;;;;;;;6301678;22;19999;-79
2023/05/15 03:50:55;;;;;;;21.13;11.48;;;;;;;;;;6301489;22;20013;-79
2023/05/15 03:53:21;;;;;;;17.38;11.65;;;;;;;;;;6301869;22;20010;-80
2023/05/15 03:55:47;;;;;;;21.23;11.95;;;;;;;;;;6301905;22;20060;-79
2023/05/15 03:58:12;;;;;;;18.33;11.20;;;;;;;;;;6301834;22;20467;-79
2023/05/15 04:00:38;;;;;;;18.80;12.02;;;;;;;;;;6302041;22;19999;-79
2023/05/15 04:03:03;;;;;;;19.17;12.05;;;;;;;;;;6273826;22;20014;-79
2023/05/15 04:05:28;;;;;;;19.70;11.18;;;;;;;;;;6301744;22;20006;-80
2023/05/15 04:07:54;;;;;;;19.92;11.07;;;;;;;;;;6272954;22;20324;-79
2023/05/15 04:10:19;;;;;;;18.20;11.07;;;;;;;;;;6301694;22;20003;-80
2023/05/15 04:12:45;;;;;;;21.48;11.27;;;;;;;;;;6301893;22;20010;-79
2023/05/15 04:15:16;;;;;;;19.00;10.57;;;;;;;;;;6301646;22;20074;-80
2023/05/15 04:17:43;;;;;;;19.48;11.25;;;;;;;;;;6301969;22;20003;-79
2023/05/15 04:20:10;;;;;;;20.38;11.70;;;;;;;;;;6301238;22;20467;-80
2023/05/15 04:22:35;;;;;;;18.30;11.23;;;;;;;;;;6273966;22;20006;-80
2023/05/15 04:25:04;;;;;;;19.63;10.85;;;;;;;;;;6301279;22;20003;-80
2023/05/15 04:27:30;;;;;;;19.85;11.02;;;;;;;;;;6301801;22;20003;-76
2023/05/15 04:29:55;;;;;;;18.77;11.07;;;;;;;;;;6301513;22;20014;-80
2023/05/15 04:32:20;;;;;;;18.75;10.30;;;;;;;;;;6301923;22;20026;-80
2023/05/15 04:34:46;;;;;;;18.83;10.57;;;;;;;;;;6301201;22;20079;-80
2023/05/15 04:37:11;;;;;;;20.15;10.73;;;;;;;;;;6301542;22;20000;-80
2023/05/15 04:39:37;;;;;;;18.60;10.90;;;;;;;;;;6301436;22;20003;-80
2023/05/15 04:42:03;;;;;;;21.95;10.40;;;;;;;;;;6301505;22;20031;-78
2023/05/15 04:44:28;;;;;;;18.83;10.95;;;;;;;;;;6301070;22;20000;-80
2023/05/15 04:46:54;;;;;;;20.05;11.48;;;;;;;;;;6301749;22;20003;-80
2023/05/15 04:49:19;;;;;;;19.92;10.75;;;;;;;;;;6301214;22;19999;-80
2023/05/15 04:51:44;;;;;;;17.35;11.48;;;;;;;;;;6301121;22;20003;-80
2023/05/15 04:54:10;;;;;;;15.23;10.93;;;;;;;;;;6301474;22;20003;-80
2023/05/15 04:56:35;;;;;;;17.02;10.30;;;;;;;;;;6301805;22;20003;-79
2023/05/15 04:59:01;;;;;;;18.13;10.95;;;;;;;;;;6275562;22;20466;-80
2023/05/15 05:01:27;;;;;;;16.40;10.15;;;;;;;;;;6303541;22;20003;-79
2023/05/15 05:03:52;;;;;;;19.73;10.90;;;;;;;;;;6303123;22;20022;-78
2023/05/15 05:06:18;;;;;;;18.08;10.52;;;;;;;;;;6303254;22;20003;-79
2023/05/15 05:08:43;;;;;;;23.05;10.90;;;;;;;;;;6275895;22;20015;-79
2023/05/15 05:11:09;;;;;;;21.10;11.63;;;;;;;;;;6303589;22;20447;-79
2023/05/15 05:13:34;;;;;;;23.92;10.80;;;;;;;;;;6303530;22;20055;-79
2023/05/15 05:16:00;;;;;;;25.85;11.15;;;;;;;;;;6303664;22;19995;-79
2023/05/15 05:18:25;;;;;;;20.70;11.38;;;;;;;;;;6275650;22;20575;-79
2023/05/15 05:21:01;;;;;;;16.42;10.77;;;;;;;;;;6303133;22;20007;-80
2023/05/15 05:23:27;;;;;;;19.98;10.82;;;;;;;;;;6303322;22;20019;-79
2023/05/15 05:25:52;;;;;;;18.45;10.20;;;;;;;;;;6302998;22;20082;-80
2023/05/15 05:28:18;;;;;;;19.75;10.85;;;;;;;;;;6275952;22;19997;-79
2023/05/15 05:30:44;;;;;;;18.92;10.48;;;;;;;;;;6275346;22;20558;-79
2023/05/15 05:33:10;;;;;;;16.60;9.85;;;;;;;;;;6303722;22;20416;-79
2023/05/15 05:35:36;;;;;;;17.27;10.48;;;;;;;;;;6302850;22;20052;-80
2023/05/15 05:38:01;;;;;;;17.38;10.32;;;;;;;;;;6302990;22;20080;-80
2023/05/15 05:40:27;;;;;;;17.92;10.68;;;;;;;;;;6303275;22;20074;-78
2023/05/15 05:42:52;;;;;;;17.33;10.52;;;;;;;;;;6303140;22;19999;-79
2023/05/15 05:45:17;;;;;;;18.05;10.35;;;;;;;;;;6302589;22;20027;-79
2023/05/15 05:47:44;;;;;;;16.95;10.45;;;;;;;;;;6303085;22;20005;-79
2023/05/15 05:50:09;;;;;;;20.10;10.32;;;;;;;;;;6302904;22;20359;-79
2023/05/15 05:52:37;;;;;;;19.08;10.55;;;;;;;;;;6303042;22;20006;-79
2023/05/15 05:55:03;;;;;;;18.27;10.95;;;;;;;;;;6302541;22;20000;-79
2023/05/15 05:57:29;;;;;;;20.77;11.02;;;;;;;;;;6276068;22;20057;-79
2023/05/15 05:59:55;;;;;;;15.05;11.02;;;;;;;;;;6302747;22;20003;-80
2023/05/15 06:02:20;;;;;;;18.38;11.00;;;;;;;;;;6303235;22;20066;-79
2023/05/15 06:04:46;;;;;;;19.08;11.55;;;;;;;;;;6302410;22;20052;-79
2023/05/15 06:07:11;;;;;;;18.95;11.50;;;;;;;;;;6302538;22;20003;-79
2023/05/15 06:09:37;;;;;;;21.45;10.35;;;;;;;;;;6301954;22;20007;-79
2023/05/15 06:12:07;;;;;;;17.00;11.00;;;;;;;;;;6303124;22;20006;-79
2023/05/15 06:14:32;;;;;;;20.27;11.57;;;;;;;;;;6302734;22;20038;-78
2023/05/15 06:16:58;;;;;;;19.30;12.05;;;;;;;;;;6303156;22;20000;-79
2023/05/15 06:19:23;;;;;;;17.67;12.20;;;;;;;;;;6302466;22;20035;-78
2023/05/15 06:21:48;;;;;;;19.85;11.90;;;;;;;;;;6302336;22;19995;-79
2023/05/15 06:24:14;;;;;;;21.88;12.32;;;;;;;;;;6302474;22;20480;-78
2023/05/15 06:26:39;;;;;;;19.85;11.65;;;;;;;;;;6302687;22;19999;-79
2023/05/15 06:29:05;;;;;;;21.08;11.73;;;;;;;;;;6302789;22;20007;-79
2023/05/15 06:31:30;;;;;;;22.02;12.70;;;;;;;;;;6302421;22;20587;-79
2023/05/15 06:33:56;;;;;;;21.50;11.70;;;;;;;;;;6302725;22;20010;-77
2023/05/15 06:36:21;;;;;;;21.70;12.45;;;;;;;;;;6301796;22;20145;-78
2023/05/15 06:38:47;;;;;;;19.30;12.52;;;;;;;;;;6275248;22;20335;-78
2023/05/15 06:41:12;;;;;;;21.20;12.10;;;;;;;;;;6302380;22;20442;-77
2023/05/15 06:43:37;;;;;;;20.45;11.98;;;;;;;;;;6302356;22;19999;-78
2023/05/15 06:46:03;;;;;;;20.77;12.40;;;;;;;;;;6302059;22;20026;-78
2023/05/15 06:48:28;;;;;;;19.85;12.25;;;;;;;;;;6302640;22;20011;-79
2023/05/15 06:50:54;;;;;;;21.40;11.82;;;;;;;;;;6302090;22;20018;-79
2023/05/15 06:53:19;;;;;;;23.13;12.68;;;;;;;;;;6302919;22;19999;-79
2023/05/15 06:55:45;;;;;;;23.08;11.80;;;;;;;;;;6302042;22;20007;-79
2023/05/15 06:58:11;;;;;;;23.17;12.48;;;;;;;;;;6302534;22;20397;-79
2023/05/15 07:00:36;;;;;;;19.35;11.68;;;;;;;;;;6302293;22;20057;-77
2023/05/15 07:03:01;;;;;;;23.35;12.63;;;;;;;;;;6302483;22;20008;-78
2023/05/15 07:05:27;;;;;;;20.58;12.02;;;;;;;;;;6301910;22;20070;-79
2023/05/15 07:07:52;;;;;;;21.23;12.43;;;;;;;;;;6302105;22;19999;-80
2023/05/15 07:10:18;;;;;;;18.17;12.55;;;;;;;;;;6302283;22;20003;-79
2023/05/15 07:12:43;;;;;;;19.48;12.07;;;;;;;;;;6302463;22;19999;-79
2023/05/15 07:15:09;;;;;;;20.95;12.20;;;;;;;;;;6302028;22;20447;-79
2023/05/15 07:17:34;;;;;;;20.83;12.00;;;;;;;;;;6302498;22;20003;-80
2023/05/15 07:20:00;;;;;;;21.25;12.13;;;;;;;;;;6274064;22;20780;-79
2023/05/15 07:22:28;;;;;;;20.65;12.68;;;;;;;;;;6301564;22;20563;-80
2023/05/15 07:24:54;;;;;;;20.33;13.13;;;;;;;;;;6301975;22;19999;-79
2023/05/15 07:27:19;;;;;;;22.77;12.35;;;;;;;;;;6302296;22;20335;-78
2023/05/15 07:29:44;;;;;;;22.38;12.80;;;;;;;;;;6274736;22;20086;-78
2023/05/15 07:32:10;;;;;;;20.15;12.48;;;;;;;;;;6302070;22;19999;-78
2023/05/15 07:34:35;;;;;;;18.75;12.15;;;;;;;;;;6302317;22;20003;-81
2023/05/15 07:37:01;;;;;;;20.02;12.57;;;;;;;;;;6274201;22;20037;-78
2023/05/15 07:39:26;;;;;;;18.95;12.65;;;;;;;;;;6301905;22;20003;-79
2023/05/15 07:41:52;;;;;;;19.73;11.98;;;;;;;;;;6301565;22;20014;-79
2023/05/15 07:44:20;;;;;;;17.13;12.07;;;;;;;;;;6301688;22;20358;-78
2023/05/15 07:46:45;;;;;;;20.33;12.05;;;;;;;;;;6301694;22;20007;-79
2023/05/15 07:49:11;;;;;;;21.55;11.98;;;;;;;;;;6302212;22;20117;-78
2023/05/15 07:51:36;;;;;;;21.00;11.80;;;;;;;;;;6301231;22;20004;-79
2023/05/15 07:54:03;;;;;;;18.65;12.23;;;;;;;;;;6302068;22;20006;-77
2023/05/15 07:56:28;;;;;;;19.50;10.90;;;;;;;;;;6301637;22;20385;-78
2023/05/15 07:58:53;;;;;;;19.15;12.32;;;;;;;;;;6301857;22;20430;-78
2023/05/15 08:01:19;;;;;;;19.92;12.30;;;;;;;;;;6301493;22;20057;-77
2023/05/15 08:03:44;;;;;;;20.45;12.05;;;;;;;;;;6301640;22;20068;-77
2023/05/15 08:06:10;;;;;;;22.15;11.70;;;;;;;;;;6301157;22;20014;-80
2023/05/15 08:08:35;;;;;;;18.63;12.45;;;;;;;;;;6301794;22;20416;-79
2023/05/15 08:11:00;;;;;;;20.83;12.00;;;;;;;;;;6301426;22;20035;-79
2023/05/15 08:13:26;;;;;;;20.67;11.80;;;;;;;;;;6301897;22;20052;-79
2023/05/15 08:15:51;;;;;;;18.63;11.48;;;;;;;;;;6301413;22;20007;-79
2023/05/15 08:18:17;;;;;;;19.65;11.52;;;;;;;;;;6274055;22;20398;-80
2023/05/15 08:20:42;;;;;;;18.50;11.38;;;;;;;;;;6301079;22;20015;-79
2023/05/15 08:23:08;;;;;;;17.00;11.80;;;;;;;;;;6301169;22;20383;-79
2023/05/15 08:25:33;;;;;;;20.27;11.13;;;;;;;;;;6301483;22;20466;-79
2023/05/15 08:27:58;;;;;;;19.58;11.15;;;;;;;;;;6301630;22;20022;-80
2023/05/15 08:30:24;;;;;;;17.55;11.07;;;;;;;;;;6301811;22;20442;-79
2023/05/15 08:32:49;;;;;;;17.88;10.98;;;;;;;;;;6301319;22;19999;-80
2023/05/15 08:35:15;;;;;;;21.70;11.27;;;;;;;;;;6301589;22;20292;-79
2023/05/15 08:37:40;;;;;;;20.55;10.57;;;;;;;;;;6300862;22;20007;-79
2023/05/15 08:40:06;;;;;;;18.75;11.00;;;;;;;;;;6274245;22;20030;-79
2023/05/15 08:42:35;;;;;;;17.45;10.23;;;;;;;;;;6301320;22;20547;-79
2023/05/15 08:45:01;;;;;;;20.27;10.27;;;;;;;;;;6301493;22;20003;-79
2023/05/15 08:47:30;;;;;;;17.58;10.32;;;;;;;;;;6301455;22;19999;-81
2023/05/15 08:50:13;;;;;;;16.02;9.75;;;;;;;;;;6302094;22;20335;-80
2023/05/15 08:52:50;;;;;;;20.60;10.23;;;;;;;;;;6301061;22;20049;-79
2023/05/15 08:55:16;;;;;;;17.48;9.63;;;;;;;;;;6301551;22;20068;-79
2023/05/15 08:57:45;;;;;;;17.23;10.27;;;;;;;;;;6301214;22;20073;-80
2023/05/15 09:00:13;;;;;;;14.75;9.95;;;;;;;;;;6301620;22;20049;-78
2023/05/15 09:02:39;;;;;;;17.42;9.77;;;;;;;;;;6301388;22;20370;-80
2023/05/15 09:05:05;;;;;;;16.92;9.88;;;;;;;;;;6301684;22;20010;-79
2023/05/15 09:07:32;;;;;;;15.93;10.20;;;;;;;;;;6300860;22;20003;-78
2023/05/15 09:09:58;;;;;;;17.00;9.88;;;;;;;;;;6273925;22;20003;-79
2023/05/15 09:12:25;;;;;;;19.52;10.10;;;;;;;;;;6301404;22;20003;-79
2023/05/15 09:14:51;;;;;;;16.00;9.70;;;;;;;;;;6301590;22;19995;-80
2023/05/15 09:17:16;;;;;;;17.80;9.80;;;;;;;;;;6300888;22;20006;-80
2023/05/15 09:19:42;;;;;;;13.88;9.23;;;;;;;;;;6301062;22;20098;-80
2023/05/15 09:22:16;;;;;;;13.80;9.18;;;;;;;;;;6273012;22;20074;-79
2023/05/15 09:24:46;;;;;;;17.23;9.65;;;;;;;;;;6301587;22;20009;-79
2023/05/15 09:27:12;;;;;;;13.05;9.35;;;;;;;;;;6301178;22;20010;-79
2023/05/15 09:29:39;;;;;;;17.52;9.32;;;;;;;;;;6301793;22;19999;-80
2023/05/15 09:32:07;;;;;;;16.58;8.98;;;;;;;;;;6301190;22;20010;-80
2023/05/15 09:34:38;;;;;;;14.25;9.32;;;;;;;;;;6301356;22;20132;-80
2023/05/15 09:37:06;;;;;;;15.35;9.18;;;;;;;;;;6300439;22;20033;-79
2023/05/15 09:39:32;;;;;;;17.40;9.35;;;;;;;;;;6301349;22;20023;-80
2023/05/15 09:42:14;;;;;;;13.48;8.60;;;;;;;;;;6301186;22;20010;-79
2023/05/15 09:44:43;;;;;;;15.93;8.65;;;;;;;;;;6302458;22;20048;-79
2023/05/15 09:47:11;;;;;;;14.82;8.85;;;;;;;;;;6303064;22;20007;-80
2023/05/15 09:49:36;;;;;;;18.70;8.88;;;;;;;;;;6303402;22;19999;-79
2023/05/15 09:52:02;;;;;;;13.27;8.38;;;;;;;;;;6302567;22;20371;-78
2023/05/15 09:54:29;;;;;;;14.95;9.05;;;;;;;;;;6303392;22;20037;-79
2023/05/15 09:56:55;;;;;;;12.55;8.07;;;;;;;;;;6302671;22;20004;-80
2023/05/15 09:59:20;;;;;;;14.73;7.80;;;;;;;;;;6303016;22;20003;-78
2023/05/15 10:01:51;;;;;;;20.73;8.05;;;;;;;;;;6302998;22;20010;-79
2023/05/15 10:04:16;;;;;;;;;;;;;;;;;;6303772;22;20006;-80
2023/05/15 10:06:46;;;;;;;11.27;7.68;;;;;;;;;;6302546;22;19911;-79
2023/05/15 10:09:15;;;;;;;13.93;8.35;;;;;;;;;;6303094;22;20006;-80
2023/05/15 10:11:51;;;;;;;13.63;8.27;;;;;;;;;;6303049;22;20448;-79
2023/05/15 10:14:17;;;;;;;13.23;7.97;;;;;;;;;;6302750;22;20003;-80
2023/05/15 10:16:44;;;;;;;11.93;8.00;;;;;;;;;;6302446;22;19999;-80
2023/05/15 10:19:11;;;;;;;14.73;7.63;;;;;;;;;;6302580;22;20015;-80
2023/05/15 10:21:39;;;;;;;15.80;8.43;;;;;;;;;;6302420;22;20072;-79
2023/05/15 10:24:05;;;;;;;15.43;9.02;;;;;;;;;;6302896;22;20546;-79
2023/05/15 10:26:37;;;;;;;11.77;7.75;;;;;;;;;;6302612;22;20070;-77
2023/05/15 10:29:05;;;;;;;15.75;8.43;;;;;;;;;;6302706;22;19999;-79
2023/05/15 10:31:31;;;;;;;14.65;8.93;;;;;;;;;;6302797;22;20068;-79
2023/05/15 10:33:58;;;;;;;16.63;8.77;;;;;;;;;;6302585;22;20429;-79
2023/05/15 10:36:24;;;;;;;13.75;8.45;;;;;;;;;;6302089;22;20031;-79
2023/05/15 10:38:50;;;;;;;15.15;8.68;;;;;;;;;;6302360;22;20069;-80
2023/05/15 10:41:17;;;;;;;14.88;8.63;;;;;;;;;;6302770;22;20008;-80
2023/05/15 10:43:48;;;;;;;14.80;8.65;;;;;;;;;;6302344;22;20463;-80
2023/05/15 10:46:15;;;;;;;13.02;8.05;;;;;;;;;;6275352;22;20034;-79
2023/05/15 10:48:40;;;;;;;13.50;8.07;;;;;;;;;;6302533;22;20003;-79
2023/05/15 10:51:17;;;;;;;12.40;8.35;;;;;;;;;;6302080;22;20076;-80
2023/05/15 10:53:43;;;;;;;14.82;8.73;;;;;;;;;;6302161;22;20026;-78
2023/05/15 10:56:15;;;;;;;16.02;8.52;;;;;;;;;;6301921;22;19995;-77
2023/05/15 10:58:50;;;;;;;11.75;8.40;;;;;;;;;;6302196;22;20428;-76
2023/05/15 11:01:33;;;;;;;17.40;8.68;;;;;;;;;;6302576;22;19995;-79
2023/05/15 11:04:21;;;;;;;14.63;8.27;;;;;;;;;;6302066;22;20497;-77
2023/05/15 11:06:48;;;;;;;14.15;8.38;;;;;;;;;;6301986;22;20003;-80
2023/05/15 11:09:23;;;;;;;10.77;7.28;;;;;;;;;;6302067;22;19996;-78
2023/05/15 11:11:51;;;;;;;14.63;7.18;;;;;;;;;;6302634;22;19999;-80
2023/05/15 11:14:18;;;;;;;9.77;7.30;;;;;;;;;;6302046;22;20006;-79
2023/05/15 11:16:52;;;;;;;12.45;7.78;;;;;;;;;;6301925;22;20093;-79
2023/05/15 11:19:43;;;;;;;12.13;6.95;;;;;;;;;;6301957;22;20072;-79
2023/05/15 11:22:20;;;;;;;12.93;7.60;;;;;;;;;;6271971;22;19999;-80
2023/05/15 11:24:48;;;;;;;11.27;7.65;;;;;;;;;;6302231;22;20003;-79
2023/05/15 11:27:20;;;;;;;10.88;7.97;;;;;;;;;;6302257;22;20555;-79
2023/05/15 11:30:12;;;;;;;15.93;8.48;;;;;;;;;;6301825;22;20074;-80
2023/05/15 11:32:43;;;;;;;12.00;7.75;;;;;;;;;;6302499;22;20000;-79
2023/05/15 11:35:31;;;;;;;10.95;7.43;;;;;;;;;;6301458;22;20462;-79
2023/05/15 11:38:10;;;;;;;16.15;7.75;;;;;;;;;;6301082;22;20456;-78
2023/05/15 11:40:55;;;;;;;12.20;7.57;;;;;;;;;;6302675;22;20006;-79
2023/05/15 11:43:23;;;;;;;14.32;7.75;;;;;;;;;;6301625;22;20064;-79
2023/05/15 11:45:52;;;;;;;12.68;7.65;;;;;;;;;;6302213;22;19999;-80
2023/05/15 11:48:18;;;;;;;10.57;7.07;;;;;;;;;;6301711;22;20589;-79
2023/05/15 11:50:44;;;;;;;14.23;6.90;;;;;;;;;;6301745;22;20011;-79
2023/05/15 11:53:10;;;;;;;10.60;7.25;;;;;;;;;;6301712;22;20030;-79
2023/05/15 11:55:37;;;;;;;12.77;7.50;;;;;;;;;;6301847;22;19999;-78
2023/05/15 11:58:04;;;;;;;12.95;7.65;;;;;;;;;;6301666;22;20082;-79
2023/05/15 12:00:30;;;;;;;11.05;6.80;;;;;;;;;;6301875;22;20003;-79
2023/05/15 12:02:56;;;;;;;11.57;6.78;;;;;;;;;;6302041;22;20052;-78
2023/05/15 12:05:22;;;;;;;11.20;7.18;;;;;;;;;;6301682;22;20010;-79
2023/05/15 12:07:47;;;;;;;11.75;7.30;;;;;;;;;;6300971;22;20003;-79
2023/05/15 12:10:13;;;;;;;13.82;7.65;;;;;;;;;;6301563;22;20065;-78
2023/05/15 12:12:40;;;;;;;11.68;7.10;;;;;;;;;;6301834;22;20082;-78
2023/05/15 12:15:10;;;;;;;9.63;6.00;;;;;;;;;;6301520;22;20074;-79
2023/05/15 12:17:38;;;;;;;11.75;6.85;;;;;;;;;;6301824;22;20078;-80
2023/05/15 12:20:25;;;;;;;11.07;6.80;;;;;;;;;;6273939;22;20019;-79
2023/05/15 12:22:50;;;;;;;9.77;5.78;;;;;;;;;;6300348;22;20003;-79
2023/05/15 12:25:16;;;;;;;11.57;6.35;;;;;;;;;;6301536;22;19999;-79
2023/05/15 12:27:42;;;;;;;11.48;5.88;;;;;;;;;;6301999;22;20023;-79
2023/05/15 12:30:09;;;;;;;11.15;6.38;;;;;;;;;;6300775;22;20042;-79
2023/05/15 12:32:36;;;;;;;9.00;6.18;;;;;;;;;;6301752;22;20003;-79
2023/05/15 12:35:03;;;;;;;8.23;5.03;;;;;;;;;;6301153;22;20022;-79
2023/05/15 12:37:34;;;;;;;9.23;5.15;;;;;;;;;;6301129;22;20010;-78
2023/05/15 12:40:00;;;;;;;;;;;;;;;;;;6301790;22;20033;-77
2023/05/15 12:42:26;;;;;;;7.22;4.72;;;;;;;;;;6301841;22;19907;-78
2023/05/15 12:44:53;;;;;;;7.20;4.15;;;;;;;;;;6273934;22;20003;-79
2023/05/15 12:47:22;;;;;;;9.60;4.82;;;;;;;;;;6301317;22;20003;-78
2023/05/15 12:49:48;;;;;;;7.68;5.35;;;;;;;;;;6301275;22;20026;-78
2023/05/15 12:52:14;;;;;;;9.73;5.32;;;;;;;;;;6301163;22;20332;-79
2023/05/15 12:54:40;;;;;;;8.73;5.30;;;;;;;;;;6301152;22;20000;-79
2023/05/15 12:57:07;;;;;;;8.43;5.18;;;;;;;;;;6301332;22;20003;-78
2023/05/15 12:59:33;;;;;;;9.05;4.97;;;;;;;;;;6301488;22;20071;-79
2023/05/15 13:01:58;;;;;;;9.38;4.97;;;;;;;;;;6301574;22;20038;-78
2023/05/15 13:04:24;;;;;;;6.85;4.40;;;;;;;;;;6301571;22;19999;-79
2023/05/15 13:06:51;;;;;;;9.07;4.93;;;;;;;;;;6301235;22;20003;-78
2023/05/15 13:09:24;;;;;;;7.95;4.68;;;;;;;;;;6301248;22;20067;-78
2023/05/15 13:11:49;;;;;;;8.50;4.53;;;;;;;;;;6273936;22;20547;-78
2023/05/15 13:14:18;;;;;;;8.30;4.53;;;;;;;;;;6301211;22;20003;-78
2023/05/15 13:16:45;;;;;;;7.30;4.60;;;;;;;;;;6301694;22;20003;-78
2023/05/15 13:19:11;;;;;;;7.32;4.82;;;;;;;;;;6301991;22;20014;-78
2023/05/15 13:21:37;;;;;;;7.75;4.53;;;;;;;;;;6302996;22;20014;-79
2023/05/15 13:24:03;;;;;;;9.50;4.60;;;;;;;;;;6303259;22;19995;-79
2023/05/15 13:26:28;;;;;;;6.15;4.30;;;;;;;;;;6303630;22;20418;-79
2023/05/15 13:28:53;;;;;;;8.48;4.50;;;;;;;;;;6303122;22;20003;-79
2023/05/15 13:31:19;;;;;;;9.48;4.22;;;;;;;;;;6303115;22;20014;-79
2023/05/15 13:33:44;;;;;;;5.63;3.92;;;;;;;;;;6275874;22;20057;-79
2023/05/15 13:36:10;;;;;;;7.50;4.25;;;;;;;;;;6302709;22;20546;-79
2023/05/15 13:38:36;;;;;;;6.32;3.95;;;;;;;;;;6303284;22;20321;-79
2023/05/15 13:41:03;;;;;;;9.50;4.68;;;;;;;;;;6303330;22;20003;-78
2023/05/15 13:43:28;;;;;;;7.32;4.00;;;;;;;;;;6303497;22;20532;-79
2023/05/15 13:45:54;;;;;;;9.65;4.20;;;;;;;;;;6303070;22;20082;-79
2023/05/15 13:48:20;;;;;;;5.63;3.63;;;;;;;;;;6303033;22;20423;-79
2023/05/15 13:50:45;;;;;;;7.13;3.70;;;;;;;;;;6302300;22;20076;-79
2023/05/15 13:53:15;;;;;;;7.95;4.13;;;;;;;;;;6275829;22;20082;-79
2023/05/15 13:55:42;;;;;;;8.63;4.03;;;;;;;;;;6302869;22;19996;-78
2023/05/15 13:58:07;;;;;;;7.57;3.85;;;;;;;;;;6303024;22;20233;-79
2023/05/15 14:00:33;;;;;;;7.32;3.90;;;;;;;;;;6303024;22;20098;-79
2023/05/15 14:02:58;;;;;;;6.22;3.80;;;;;;;;;;6303105;22;20490;-78
2023/05/15 14:05:23;;;;;;;6.97;3.83;;;;;;;;;;6302591;22;20006;-79
2023/05/15 14:07:49;;;;;;;5.93;3.40;;;;;;;;;;6302632;22;20068;-79
2023/05/15 14:10:14;;;;;;;7.03;3.70;;;;;;;;;;6302492;22;20387;-79
2023/05/15 14:12:41;;;;;;;5.97;3.20;;;;;;;;;;6302862;22;20000;-79
2023/05/15 14:15:07;;;;;;;4.88;3.50;;;;;;;;;;6302664;22;20003;-80
2023/05/15 14:17:33;;;;;;;7.50;3.50;;;;;;;;;;6275521;22;20466;-79
2023/05/15 14:19:58;;;;;;;5.90;3.47;;;;;;;;;;6302409;22;20440;-79
2023/05/15 14:22:24;;;;;;;9.40;3.50;;;;;;;;;;6302493;22;19999;-78
2023/05/15 14:24:51;;;;;;;5.63;3.55;;;;;;;;;;6302725;22;20068;-78